createdAt,value
2023-02-24T00:02:01.746Z,19.15
2023-02-24T00:04:33.850Z,19.60
2023-02-24T00:07:01.365Z,18.10
2023-02-24T00:09:33.356Z,17.55
2023-02-24T00:12:05.078Z,20.20
2023-02-24T00:14:34.720Z,19.65
2023-02-24T00:17:02.309Z,19.15
2023-02-24T00:19:34.032Z,19.27
2023-02-24T00:22:08.448Z,18.65
2023-02-24T00:24:36.245Z,18.80
2023-02-24T00:27:08.292Z,20.92
2023-02-24T00:29:40.214Z,18.92
2023-02-24T00:32:12.667Z,20.17
2023-02-24T00:34:41.277Z,23.27
2023-02-24T00:37:08.410Z,20.77
2023-02-24T00:39:37.072Z,22.70
2023-02-24T00:42:05.789Z,24.65
2023-02-24T00:44:34.971Z,23.45
2023-02-24T00:47:02.730Z,22.25
2023-02-24T00:49:30.804Z,21.70
2023-02-24T00:51:58.485Z,23.02
2023-02-24T00:54:28.368Z,22.30
2023-02-24T00:56:56.249Z,22.38
2023-02-24T00:59:24.167Z,23.63
2023-02-24T01:01:51.955Z,23.13
2023-02-24T01:04:20.136Z,24.67
2023-02-24T01:06:52.670Z,25.85
2023-02-24T01:09:21.131Z,24.77
2023-02-24T01:12:08.292Z,26.55
2023-02-24T01:14:36.256Z,34.38
2023-02-24T01:17:04.811Z,37.08
2023-02-24T01:19:34.970Z,33.45
2023-02-24T01:22:06.222Z,32.85
2023-02-24T01:24:39.113Z,29.30
2023-02-24T01:27:07.018Z,36.25
2023-02-24T01:29:39.379Z,41.35
2023-02-24T01:32:17.000Z,38.60
2023-02-24T01:34:45.893Z,33.80
2023-02-24T01:37:16.523Z,29.80
2023-02-24T01:39:45.232Z,28.17
2023-02-24T01:42:19.480Z,29.73
2023-02-24T01:44:47.854Z,28.10
2023-02-24T01:47:22.583Z,29.25
2023-02-24T01:49:53.902Z,30.40
2023-02-24T01:52:27.852Z,30.13
2023-02-24T01:55:20.256Z,28.90
2023-02-24T01:57:50.409Z,28.75
2023-02-24T02:00:38.062Z,30.40
2023-02-24T02:03:15.749Z,28.48
2023-02-24T02:05:43.293Z,30.02
2023-02-24T02:08:11.132Z,30.33
2023-02-24T02:10:40.832Z,31.70
2023-02-24T02:13:07.807Z,31.25
2023-02-24T02:15:47.325Z,28.98
2023-02-24T02:18:35.000Z,32.58
2023-02-24T02:21:41.136Z,31.73
2023-02-24T02:24:34.989Z,31.20
2023-02-24T02:27:36.955Z,31.58
2023-02-24T02:30:36.165Z,30.02
2023-02-24T02:33:27.459Z,29.05
2023-02-24T02:36:18.743Z,32.70
2023-02-24T02:38:54.853Z,30.23
2023-02-24T02:41:28.803Z,32.58
2023-02-24T02:44:08.000Z,31.08
2023-02-24T02:46:43.120Z,32.17
2023-02-24T02:49:23.706Z,32.63
2023-02-24T02:51:56.910Z,31.50
2023-02-24T02:54:40.354Z,30.27
2023-02-24T02:57:15.288Z,34.05
2023-02-24T03:00:21.349Z,31.02
2023-02-24T03:02:52.021Z,33.78
2023-02-24T03:05:29.637Z,32.50
2023-02-24T03:07:59.044Z,35.35
2023-02-24T03:10:29.933Z,34.70
2023-02-24T03:13:03.786Z,30.88
2023-02-24T03:15:32.995Z,33.95
2023-02-24T03:18:11.153Z,32.92
2023-02-24T03:20:49.513Z,34.90
2023-02-24T03:23:21.603Z,32.38
2023-02-24T03:26:00.966Z,31.92
2023-02-24T03:28:37.582Z,33.08
2023-02-24T03:31:22.928Z,30.48
2023-02-24T03:34:07.892Z,30.88
2023-02-24T03:36:35.477Z,32.08
2023-02-24T03:39:04.589Z,32.03
2023-02-24T03:41:41.381Z,31.83
2023-02-24T03:44:11.213Z,33.53
2023-02-24T03:46:41.505Z,32.63
2023-02-24T03:49:14.240Z,30.80
2023-02-24T03:51:44.888Z,33.28
2023-02-24T03:54:55.860Z,29.75
2023-02-24T03:57:54.782Z,29.25
2023-02-24T04:00:35.278Z,29.42
2023-02-24T04:03:25.536Z,30.58
2023-02-24T04:06:28.317Z,27.42
2023-02-24T04:09:23.651Z,30.27
2023-02-24T04:11:56.728Z,28.58
2023-02-24T04:14:38.458Z,28.23
2023-02-24T04:17:30.870Z,28.15
2023-02-24T04:20:09.225Z,28.38
2023-02-24T04:22:36.983Z,26.33
2023-02-24T04:25:06.373Z,27.83
2023-02-24T04:27:34.100Z,26.05
2023-02-24T04:30:04.950Z,29.08
2023-02-24T04:32:32.896Z,27.52
2023-02-24T04:35:13.685Z,27.30
2023-02-24T04:37:44.519Z,28.13
2023-02-24T04:40:17.588Z,31.23
2023-02-24T04:42:49.060Z,26.73
2023-02-24T04:45:22.861Z,26.67
2023-02-24T04:47:53.142Z,27.15
2023-02-24T04:50:24.331Z,26.50
2023-02-24T04:53:02.923Z,24.20
2023-02-24T04:55:34.608Z,25.23
2023-02-24T04:58:02.131Z,23.70
2023-02-24T05:00:33.580Z,27.17
2023-02-24T05:03:02.579Z,24.90
2023-02-24T05:05:33.162Z,23.92
2023-02-24T05:08:09.102Z,25.30
2023-02-24T05:10:44.222Z,25.15
2023-02-24T05:13:14.593Z,22.60
2023-02-24T05:15:44.707Z,24.20
2023-02-24T05:18:14.903Z,24.35
2023-02-24T05:21:03.833Z,22.88
2023-02-24T05:23:46.147Z,22.75
2023-02-24T05:26:18.628Z,22.20
2023-02-24T05:28:52.341Z,20.83
2023-02-24T05:31:28.874Z,21.55
2023-02-24T05:33:58.917Z,22.67
2023-02-24T05:36:29.256Z,22.25
2023-02-24T05:39:06.244Z,23.08
2023-02-24T05:41:37.793Z,22.27
2023-02-24T05:44:10.897Z,21.25
2023-02-24T05:46:41.426Z,21.40
2023-02-24T05:49:14.400Z,21.88
2023-02-24T05:51:54.413Z,20.70
2023-02-24T05:54:33.877Z,21.35
2023-02-24T05:57:04.502Z,19.42
2023-02-24T05:59:33.099Z,20.17
2023-02-24T06:02:09.138Z,19.00
2023-02-24T06:04:45.824Z,20.88
2023-02-24T06:07:22.911Z,19.60
2023-02-24T06:09:53.511Z,20.95
2023-02-24T06:12:23.290Z,20.20
2023-02-24T06:14:50.417Z,22.52
2023-02-24T06:17:19.004Z,19.40
2023-02-24T06:19:49.422Z,20.70
2023-02-24T06:22:22.615Z,20.75
2023-02-24T06:24:50.137Z,20.65
2023-02-24T06:27:19.633Z,17.05
2023-02-24T06:29:51.000Z,17.55
2023-02-24T06:32:20.357Z,15.82
2023-02-24T06:34:47.489Z,15.15
2023-02-24T06:37:16.038Z,14.55
2023-02-24T06:39:43.510Z,14.63
2023-02-24T06:42:12.210Z,15.48
2023-02-24T06:44:40.736Z,14.05
2023-02-24T06:47:11.517Z,13.57
2023-02-24T06:49:38.434Z,14.18
2023-02-24T06:52:05.979Z,14.82
2023-02-24T06:54:36.017Z,13.65
2023-02-24T06:57:04.373Z,14.60
2023-02-24T06:59:32.261Z,14.73
2023-02-24T07:02:03.425Z,14.50
2023-02-24T07:04:30.891Z,15.20
2023-02-24T07:07:03.426Z,16.75
2023-02-24T07:09:32.068Z,17.55
2023-02-24T07:12:02.912Z,15.80
2023-02-24T07:14:33.054Z,14.43
2023-02-24T07:17:00.906Z,14.07
2023-02-24T07:19:32.487Z,15.85
2023-02-24T07:22:03.209Z,14.73
2023-02-24T07:24:36.000Z,13.90
2023-02-24T07:27:11.508Z,13.18
2023-02-24T07:29:39.238Z,12.73
2023-02-24T07:32:09.455Z,13.20
2023-02-24T07:34:40.430Z,13.07
2023-02-24T07:37:09.902Z,11.82
2023-02-24T07:39:39.265Z,17.27
2023-02-24T07:42:09.217Z,23.65
2023-02-24T07:44:36.374Z,20.42
2023-02-24T07:47:08.159Z,23.65
2023-02-24T07:49:35.873Z,16.92
2023-02-24T07:52:03.936Z,18.50
2023-02-24T07:54:31.761Z,18.30
2023-02-24T07:56:59.776Z,16.52
2023-02-24T07:59:29.439Z,16.23
2023-02-24T08:01:57.467Z,14.38
2023-02-24T08:04:30.222Z,12.93
2023-02-24T08:06:59.128Z,13.88
2023-02-24T08:10:07.000Z,23.50
2023-02-24T08:12:35.322Z,28.98
2023-02-24T08:15:16.950Z,28.02
2023-02-24T08:17:45.093Z,26.92
2023-02-24T08:20:13.201Z,20.70
2023-02-24T08:22:44.357Z,14.85
2023-02-24T08:25:18.604Z,12.40
2023-02-24T08:28:07.508Z,15.63
2023-02-24T08:30:39.438Z,17.85
2023-02-24T08:33:09.450Z,16.58
2023-02-24T08:35:39.501Z,15.85
2023-02-24T08:38:26.482Z,14.07
2023-02-24T08:40:55.783Z,12.07
2023-02-24T08:43:37.292Z,13.57
2023-02-24T08:46:13.300Z,13.77
2023-02-24T08:48:45.197Z,12.98
2023-02-24T08:51:23.886Z,13.40
2023-02-24T08:53:53.973Z,12.40
2023-02-24T08:56:24.944Z,11.77
2023-02-24T08:59:07.308Z,13.55
2023-02-24T09:01:38.327Z,12.87
2023-02-24T09:04:19.082Z,12.27
2023-02-24T09:06:52.539Z,14.25
2023-02-24T09:09:22.963Z,12.90
2023-02-24T09:11:59.068Z,14.93
2023-02-24T09:14:36.491Z,16.60
2023-02-24T09:17:06.658Z,16.50
2023-02-24T09:20:02.774Z,12.65
2023-02-24T09:22:33.067Z,21.83
2023-02-24T09:25:24.301Z,29.00
2023-02-24T09:27:52.549Z,22.10
2023-02-24T09:30:36.378Z,28.67
2023-02-24T09:33:18.777Z,17.77
2023-02-24T09:36:12.970Z,14.25
2023-02-24T09:39:06.312Z,12.68
2023-02-24T09:41:56.640Z,13.30
2023-02-24T09:44:36.277Z,17.60
2023-02-24T09:47:19.073Z,16.08
2023-02-24T09:49:56.420Z,16.90
2023-02-24T09:52:43.662Z,19.80
2023-02-24T09:55:27.115Z,11.15
2023-02-24T09:58:18.136Z,9.90
2023-02-24T10:01:21.416Z,11.73
2023-02-24T10:04:18.322Z,13.03
2023-02-24T10:07:03.129Z,9.48
2023-02-24T10:09:34.543Z,9.45
2023-02-24T10:12:24.331Z,8.32
2023-02-24T10:15:17.679Z,8.35
2023-02-24T10:17:57.400Z,8.98
2023-02-24T10:20:44.869Z,9.30
2023-02-24T10:23:36.245Z,9.02
2023-02-24T10:26:31.674Z,8.77
2023-02-24T10:29:22.729Z,7.05
2023-02-24T10:31:57.976Z,11.75
2023-02-24T10:34:31.894Z,10.27
2023-02-24T10:37:19.378Z,8.65
2023-02-24T10:40:09.516Z,13.23
2023-02-24T10:42:45.838Z,9.95
2023-02-24T10:45:24.741Z,6.72
2023-02-24T10:47:58.361Z,6.38
2023-02-24T10:50:55.474Z,8.13
2023-02-24T10:53:37.825Z,6.63
2023-02-24T10:56:41.656Z,6.40
2023-02-24T10:59:38.941Z,6.90
2023-02-24T11:02:55.872Z,5.93
2023-02-24T11:05:27.420Z,7.03
2023-02-24T11:08:10.462Z,7.28
2023-02-24T11:10:58.733Z,5.60
2023-02-24T11:13:45.626Z,3.63
2023-02-24T11:16:31.281Z,4.93
2023-02-24T11:18:58.861Z,4.43
2023-02-24T11:21:27.657Z,5.63
2023-02-24T11:23:59.853Z,5.25
2023-02-24T11:26:36.000Z,7.70
2023-02-24T11:29:17.571Z,5.40
2023-02-24T11:31:53.542Z,4.05
2023-02-24T11:34:50.842Z,4.00
2023-02-24T11:37:28.257Z,4.60
2023-02-24T11:40:39.099Z,3.95
2023-02-24T11:43:14.130Z,3.70
2023-02-24T11:45:49.870Z,2.95
2023-02-24T11:48:21.289Z,3.30
2023-02-24T11:51:12.247Z,4.50
2023-02-24T11:54:03.298Z,4.03
2023-02-24T11:56:36.647Z,4.68
2023-02-24T11:59:20.287Z,5.22
2023-02-24T12:02:24.862Z,3.55
2023-02-24T12:05:16.966Z,3.80
2023-02-24T12:08:03.010Z,4.50
2023-02-24T12:10:35.563Z,4.18
2023-02-24T12:13:23.689Z,4.32
2023-02-24T12:16:10.910Z,3.85
2023-02-24T12:18:47.321Z,4.07
2023-02-24T12:21:30.687Z,4.18
2023-02-24T12:23:59.057Z,4.60
2023-02-24T12:26:48.000Z,4.43
2023-02-24T12:29:52.337Z,4.07
2023-02-24T12:32:38.668Z,4.57
2023-02-24T12:35:20.103Z,4.93
2023-02-24T12:37:55.184Z,5.38
2023-02-24T12:40:28.658Z,4.80
2023-02-24T12:45:57.151Z,5.55
2023-02-24T12:48:48.512Z,6.13
2023-02-24T12:51:57.036Z,5.57
2023-02-24T12:54:42.101Z,4.57
2023-02-24T12:57:27.132Z,4.82
2023-02-24T12:59:57.057Z,5.63
2023-02-24T13:02:40.258Z,5.75
2023-02-24T13:05:28.308Z,5.37
2023-02-24T13:08:26.779Z,5.85
2023-02-24T13:11:02.559Z,4.75
2023-02-24T13:13:59.610Z,5.13
2023-02-24T13:16:33.002Z,4.75
2023-02-24T13:19:29.528Z,11.23
2023-02-24T13:22:25.262Z,4.43
2023-02-24T13:24:57.268Z,4.95
2023-02-24T13:27:27.335Z,4.18
2023-02-24T13:30:20.066Z,3.67
2023-02-24T13:32:59.753Z,4.90
2023-02-24T13:35:27.235Z,3.88
2023-02-24T13:37:54.931Z,3.95
2023-02-24T13:40:27.261Z,5.10
2023-02-24T13:43:01.422Z,5.25
2023-02-24T13:45:34.841Z,3.70
2023-02-24T13:48:07.839Z,4.15
2023-02-24T13:50:52.951Z,4.38
2023-02-24T13:53:55.614Z,4.22
2023-02-24T13:56:49.003Z,3.28
2023-02-24T13:59:44.095Z,4.40
2023-02-24T14:02:14.404Z,4.47
2023-02-24T14:04:53.642Z,4.25
2023-02-24T14:07:31.757Z,4.00
2023-02-24T14:10:13.520Z,3.85
2023-02-24T14:12:42.692Z,4.07
2023-02-24T14:15:19.348Z,4.38
2023-02-24T14:18:05.509Z,4.82
2023-02-24T14:20:34.705Z,3.72
2023-02-24T14:23:02.429Z,4.03
2023-02-24T14:25:34.782Z,4.00
2023-02-24T14:28:02.508Z,5.40
2023-02-24T14:30:37.439Z,4.55
2023-02-24T14:33:08.689Z,4.18
2023-02-24T14:35:47.009Z,4.63
2023-02-24T14:38:32.716Z,5.03
2023-02-24T14:41:00.287Z,6.07
2023-02-24T14:43:28.065Z,4.80
2023-02-24T14:45:57.642Z,4.15
2023-02-24T14:48:30.705Z,4.40
2023-02-24T14:51:35.629Z,4.22
2023-02-24T14:54:11.737Z,3.92
2023-02-24T14:56:39.139Z,4.80
2023-02-24T14:59:15.232Z,5.40
2023-02-24T15:01:49.463Z,6.10
2023-02-24T15:04:32.487Z,4.40
2023-02-24T15:07:04.019Z,5.75
2023-02-24T15:09:42.930Z,12.82
2023-02-24T15:12:20.744Z,11.13
2023-02-24T15:14:52.378Z,6.13
2023-02-24T15:17:21.484Z,6.80
2023-02-24T15:19:54.462Z,8.52
2023-02-24T15:22:28.151Z,17.85
2023-02-24T15:25:15.347Z,9.73
2023-02-24T15:27:59.005Z,5.63
2023-02-24T15:30:52.506Z,5.78
2023-02-24T15:33:25.811Z,5.28
2023-02-24T15:35:55.657Z,4.40
2023-02-24T15:38:25.573Z,4.10
2023-02-24T15:40:58.910Z,4.55
2023-02-24T15:43:39.942Z,4.28
2023-02-24T15:46:36.818Z,4.28
2023-02-24T15:49:05.702Z,4.15
2023-02-24T15:51:41.808Z,4.30
2023-02-24T15:54:12.950Z,4.03
2023-02-24T15:56:41.377Z,3.95
2023-02-24T15:59:10.301Z,4.07
2023-02-24T16:01:37.839Z,4.90
2023-02-24T16:04:05.143Z,4.70
2023-02-24T16:06:34.001Z,4.22
2023-02-24T16:09:05.019Z,4.97
2023-02-24T16:11:37.484Z,4.82
2023-02-24T16:14:04.534Z,4.63
2023-02-24T16:16:33.390Z,5.20
2023-02-24T16:19:00.547Z,5.68
2023-02-24T16:21:27.900Z,5.47
2023-02-24T16:23:54.943Z,6.18
2023-02-24T16:26:23.551Z,6.72
2023-02-24T16:28:57.112Z,5.55
2023-02-24T16:31:26.166Z,7.72
2023-02-24T16:33:55.818Z,6.15
2023-02-24T16:36:25.306Z,7.40
2023-02-24T16:38:52.930Z,10.75
2023-02-24T16:41:20.420Z,17.30
2023-02-24T16:43:47.741Z,19.10
2023-02-24T16:46:22.822Z,11.30
2023-02-24T16:48:53.449Z,8.85
2023-02-24T16:51:21.854Z,6.45
2023-02-24T16:53:48.824Z,5.75
2023-02-24T16:56:16.931Z,7.93
2023-02-24T16:58:44.053Z,6.72
2023-02-24T17:01:18.324Z,7.43
2023-02-24T17:03:48.759Z,7.47
2023-02-24T17:06:16.254Z,6.82
2023-02-24T17:08:43.840Z,5.60
2023-02-24T17:11:14.265Z,5.93
2023-02-24T17:13:41.622Z,5.57
2023-02-24T17:16:09.174Z,4.97
2023-02-24T17:18:36.629Z,7.47
2023-02-24T17:21:04.409Z,6.05
2023-02-24T17:23:32.352Z,5.68
2023-02-24T17:26:01.899Z,4.28
2023-02-24T17:28:29.426Z,5.10
2023-02-24T17:30:57.127Z,4.40
2023-02-24T17:33:24.204Z,4.55
2023-02-24T17:35:51.515Z,4.68
2023-02-24T17:38:21.489Z,5.65
2023-02-24T17:40:48.933Z,4.95
2023-02-24T17:43:15.888Z,4.95
2023-02-24T17:45:45.269Z,8.20
2023-02-24T17:48:14.212Z,6.82
2023-02-24T17:50:42.810Z,6.38
2023-02-24T17:53:09.766Z,4.88
2023-02-24T17:55:37.069Z,5.10
2023-02-24T17:58:04.078Z,5.22
2023-02-24T18:00:31.558Z,5.97
2023-02-24T18:02:58.589Z,5.65
2023-02-24T18:05:26.801Z,5.57
2023-02-24T18:07:53.783Z,6.05
2023-02-24T18:10:21.085Z,5.05
2023-02-24T18:12:48.019Z,5.30
2023-02-24T18:15:15.389Z,6.20
2023-02-24T18:17:42.360Z,5.72
2023-02-24T18:20:12.240Z,5.00
2023-02-24T18:22:39.344Z,6.40
2023-02-24T18:25:07.529Z,7.85
2023-02-24T18:27:34.748Z,6.60
2023-02-24T18:30:02.540Z,6.40
2023-02-24T18:32:29.658Z,7.80
2023-02-24T18:34:57.347Z,6.25
2023-02-24T18:37:24.385Z,7.00
2023-02-24T18:39:53.313Z,6.28
2023-02-24T18:42:20.608Z,6.05
2023-02-24T18:44:47.960Z,7.03
2023-02-24T18:47:14.888Z,7.53
2023-02-24T18:49:42.184Z,7.68
2023-02-24T18:52:11.514Z,7.45
2023-02-24T18:54:39.106Z,8.25
2023-02-24T18:57:06.104Z,8.27
2023-02-24T18:59:33.596Z,8.45
2023-02-24T19:02:00.651Z,8.40
2023-02-24T19:04:28.085Z,8.02
2023-02-24T19:06:55.062Z,8.30
2023-02-24T19:09:22.560Z,7.90
2023-02-24T19:11:50.474Z,7.25
2023-02-24T19:14:18.069Z,8.55
2023-02-24T19:16:45.304Z,7.72
2023-02-24T19:19:14.979Z,8.85
2023-02-24T19:21:45.370Z,8.05
2023-02-24T19:24:13.888Z,9.15
2023-02-24T19:26:43.832Z,6.40
2023-02-24T19:29:11.890Z,7.25
2023-02-24T19:31:39.701Z,7.45
2023-02-24T19:34:10.173Z,7.65
2023-02-24T19:36:38.121Z,6.40
2023-02-24T19:39:08.825Z,7.75
2023-02-24T19:41:36.910Z,6.95
2023-02-24T19:44:04.341Z,7.97
2023-02-24T19:46:34.003Z,6.80
2023-02-24T19:49:01.764Z,6.53
2023-02-24T19:51:29.444Z,6.47
2023-02-24T19:53:59.269Z,7.72
2023-02-24T19:56:32.016Z,6.65
2023-02-24T19:59:00.743Z,7.55
2023-02-24T20:01:29.403Z,7.20
2023-02-24T20:03:59.204Z,5.68
2023-02-24T20:06:31.348Z,6.30
2023-02-24T20:08:59.711Z,6.22
2023-02-24T20:11:29.665Z,5.75
2023-02-24T20:13:57.077Z,6.05
2023-02-24T20:16:26.411Z,6.50
2023-02-24T20:18:56.654Z,6.82
2023-02-24T20:21:23.674Z,6.50
2023-02-24T20:23:51.423Z,5.28
2023-02-24T20:26:19.189Z,5.10
2023-02-24T20:28:47.738Z,6.45
2023-02-24T20:31:17.652Z,5.95
2023-02-24T20:33:46.764Z,6.88
2023-02-24T20:36:24.504Z,6.20
2023-02-24T20:38:52.746Z,6.00
2023-02-24T20:41:21.125Z,5.32
2023-02-24T20:43:48.727Z,5.32
2023-02-24T20:46:18.224Z,7.30
2023-02-24T20:48:46.115Z,5.72
2023-02-24T20:51:13.362Z,6.70
2023-02-24T20:53:56.100Z,5.43
2023-02-24T20:56:25.516Z,5.25
2023-02-24T20:58:57.242Z,6.80
2023-02-24T21:01:24.301Z,5.38
2023-02-24T21:03:52.022Z,5.53
2023-02-24T21:06:19.184Z,5.10
2023-02-24T21:08:46.538Z,5.95
2023-02-24T21:11:15.064Z,4.93
2023-02-24T21:13:44.373Z,5.15
2023-02-24T21:16:12.959Z,5.68
2023-02-24T21:18:42.331Z,4.95
2023-02-24T21:21:10.471Z,4.43
2023-02-24T21:23:39.555Z,5.30
2023-02-24T21:26:07.194Z,5.20
2023-02-24T21:28:34.918Z,4.45
2023-02-24T21:31:07.357Z,5.63
2023-02-24T21:33:34.784Z,6.35
2023-02-24T21:36:06.657Z,5.70
2023-02-24T21:38:34.505Z,6.17
2023-02-24T21:41:03.202Z,5.55
2023-02-24T21:43:30.551Z,5.65
2023-02-24T21:46:05.487Z,5.60
2023-02-24T21:48:33.703Z,5.20
2023-02-24T21:51:09.516Z,5.57
2023-02-24T21:53:39.377Z,5.82
2023-02-24T21:56:16.582Z,6.07
2023-02-24T21:58:47.206Z,5.18
2023-02-24T22:01:20.109Z,4.97
2023-02-24T22:03:48.087Z,6.00
2023-02-24T22:06:20.447Z,6.25
2023-02-24T22:08:47.910Z,6.65
2023-02-24T22:11:17.329Z,6.82
2023-02-24T22:13:45.933Z,6.75
2023-02-24T22:16:19.908Z,6.88
2023-02-24T22:18:48.980Z,7.35
2023-02-24T22:21:18.303Z,7.78
2023-02-24T22:23:47.641Z,7.70
2023-02-24T22:26:16.846Z,7.22
2023-02-24T22:28:46.776Z,7.38
2023-02-24T22:31:15.939Z,7.65
2023-02-24T22:33:44.727Z,7.97
2023-02-24T22:36:18.486Z,7.68
2023-02-24T22:38:46.477Z,7.97
2023-02-24T22:41:15.937Z,8.48
2023-02-24T22:43:43.482Z,8.88
2023-02-24T22:46:21.075Z,8.10
2023-02-24T22:48:48.737Z,7.63
2023-02-24T22:51:15.865Z,8.80
2023-02-24T22:53:46.566Z,8.90
2023-02-24T22:56:15.951Z,7.85
2023-02-24T22:58:43.535Z,8.27
2023-02-24T23:01:20.018Z,7.68
2023-02-24T23:03:47.694Z,8.60
2023-02-24T23:06:21.597Z,7.97
2023-02-24T23:08:50.736Z,8.48
2023-02-24T23:11:31.011Z,8.18
2023-02-24T23:14:01.325Z,7.32
2023-02-24T23:16:31.802Z,7.45
2023-02-24T23:19:02.047Z,8.18
2023-02-24T23:21:34.708Z,8.68
2023-02-24T23:24:02.343Z,8.98
2023-02-24T23:26:33.633Z,7.95
2023-02-24T23:29:02.016Z,8.02
2023-02-24T23:31:29.590Z,7.43
2023-02-24T23:33:56.919Z,7.60
2023-02-24T23:36:25.124Z,9.73
2023-02-24T23:38:52.967Z,7.90
2023-02-24T23:41:19.941Z,8.20
2023-02-24T23:43:47.183Z,8.25
2023-02-24T23:46:14.243Z,7.53
2023-02-24T23:48:41.963Z,9.75
2023-02-24T23:51:13.415Z,8.98
2023-02-24T23:53:43.016Z,8.80
2023-02-24T23:56:13.976Z,7.82
2023-02-24T23:58:41.715Z,8.68
